Time;durP1;ratioP1;P1;durP2;ratioP2;P2;SDS_P1;SDS_P2;PMS_P1;PMS_P2;Temp;Humidity;BMP_temperature;BMP_pressure;BME280_temperature;BME280_humidity;BME280_pressure;Samples;Min_cycle;Max_cycle;Signal;HPM_P1;HPM_P2
2023/07/29 00:00:49;;;;;;;;;;;18.10;99.90;;;;;;5096479;28;19908;-67
2023/07/29 00:03:16;;;;;;;;;;;18.10;99.90;;;;;;5096314;28;20277;-66
2023/07/29 00:05:43;;;;;;;;;;;18.20;99.90;;;;;;5096499;28;19908;-68
2023/07/29 00:08:09;;;;;;;;;;;18.20;99.90;;;;;;5098517;28;20301;-67
2023/07/29 00:10:37;;;;;;;;;;;18.30;99.90;;;;;;5110567;28;19954;-67
2023/07/29 00:13:04;;;;;;;;;;;18.40;99.90;;;;;;5116153;28;19912;-66
2023/07/29 00:15:31;;;;;;;;;;;18.40;99.90;;;;;;5116407;28;19941;-67
2023/07/29 00:17:57;;;;;;;;;;;18.50;99.90;;;;;;5096221;28;19916;-66
2023/07/29 00:20:24;;;;;;;;;;;18.50;99.90;;;;;;5096251;28;19961;-66
2023/07/29 00:22:53;;;;;;;;;;;18.50;99.90;;;;;;5095928;28;19954;-67
2023/07/29 00:25:20;;;;;;;;;;;18.60;99.90;;;;;;5110447;28;19912;-69
2023/07/29 00:27:47;;;;;;;;;;;18.60;99.90;;;;;;5097913;28;19957;-67
2023/07/29 00:30:14;;;;;;;;;;;18.70;99.90;;;;;;5116368;28;20048;-66
2023/07/29 00:32:40;;;;;;;;;;;18.80;99.90;;;;;;5109128;28;20019;-65
2023/07/29 00:35:07;;;;;;;;;;;19.10;99.90;;;;;;5095769;28;20006;-67
2023/07/29 00:37:34;;;;;;;;;;;19.20;99.90;;;;;;5110546;28;19924;-66
2023/07/29 00:40:00;;;;;;;;;;;19.40;99.90;;;;;;5115859;28;19972;-66
2023/07/29 00:42:27;;;;;;;;;;;19.60;99.90;;;;;;5115758;28;20007;-69
2023/07/29 00:44:54;;;;;;;;;;;19.80;99.90;;;;;;5104049;28;19973;-68
2023/07/29 00:47:20;;;;;;;;;;;20.00;99.90;;;;;;5095618;28;20291;-67
2023/07/29 00:49:47;;;;;;;;;;;20.30;99.90;;;;;;5095450;28;19930;-66
2023/07/29 00:52:14;;;;;;;;;;;20.50;99.60;;;;;;5095202;28;19919;-67
2023/07/29 00:54:40;;;;;;;;;;;20.60;99.30;;;;;;5109804;28;19912;-66
2023/07/29 00:57:08;;;;;;;;;;;20.80;99.00;;;;;;5116248;28;20276;-67
2023/07/29 00:59:35;;;;;;;;;;;20.90;98.40;;;;;;5115807;28;20392;-66
2023/07/29 01:02:03;;;;;;;;;;;20.90;98.50;;;;;;5115689;28;19908;-66
2023/07/29 01:04:29;;;;;;;;;;;20.80;98.20;;;;;;5107656;28;19916;-67
2023/07/29 01:07:02;;;;;;;;;;;20.90;97.90;;;;;;5095194;28;19912;-67
2023/07/29 01:09:31;;;;;;;;;;;21.00;98.00;;;;;;5095098;28;19931;-67
2023/07/29 01:12:04;;;;;;;;;;;21.10;97.90;;;;;;5094853;28;19965;-66
2023/07/29 01:14:37;;;;;;;;;;;21.30;97.60;;;;;;5094971;28;19908;-66
2023/07/29 01:17:04;;;;;;;;;;;21.60;97.80;;;;;;5095174;28;19912;-66
2023/07/29 01:19:49;;;;;;;;;;;21.90;96.90;;;;;;5095085;28;20369;-66
2023/07/29 01:22:16;;;;;;;;;;;22.00;96.40;;;;;;5094855;28;19918;-67
2023/07/29 01:24:43;;;;;;;;;;;22.00;95.90;;;;;;5109271;28;20307;-67
2023/07/29 01:27:09;;;;;;;;;;;21.90;95.70;;;;;;5115408;28;19912;-67
2023/07/29 01:29:36;;;;;;;;;;;21.90;95.90;;;;;;5115275;28;19908;-67
2023/07/29 01:32:06;;;;;;;;;;;22.30;95.60;;;;;;5109896;28;19966;-66
2023/07/29 01:34:36;;;;;;;;;;;22.50;94.90;;;;;;5094645;28;19912;-67
2023/07/29 01:37:05;;;;;;;;;;;22.70;94.50;;;;;;5094228;28;20015;-66
2023/07/29 01:39:33;;;;;;;;;;;22.70;94.00;;;;;;5094715;28;19915;-66
2023/07/29 01:41:59;;;;;;;;;;;22.90;94.00;;;;;;5094440;28;19908;-68
2023/07/29 01:44:26;;;;;;;;;;;22.80;94.30;;;;;;5108007;28;19964;-68
2023/07/29 01:46:53;;;;;;;;;;;22.90;94.00;;;;;;5109046;28;19912;-67
2023/07/29 01:49:19;;;;;;;;;;;22.90;93.60;;;;;;5096414;28;19907;-67
2023/07/29 01:51:46;;;;;;;;;;;22.90;93.70;;;;;;5114574;28;19980;-67
2023/07/29 01:54:13;;;;;;;;;;;22.80;93.60;;;;;;5114868;28;19912;-68
2023/07/29 01:56:39;;;;;;;;;;;22.60;93.50;;;;;;5114783;28;19919;-66
2023/07/29 01:59:06;;;;;;;;;;;22.50;93.80;;;;;;5114763;28;20372;-66
2023/07/29 02:01:33;;;;;;;;;;;22.30;93.30;;;;;;5093907;28;19912;-68
2023/07/29 02:03:59;;;;;;;;;;;22.20;93.80;;;;;;5113633;28;19976;-67
2023/07/29 02:06:27;;;;;;;;;;;22.20;94.00;;;;;;5114766;28;19992;-67
2023/07/29 02:08:54;;;;;;;;;;;22.20;93.40;;;;;;5114503;28;20386;-69
2023/07/29 02:11:27;;;;;;;;;;;22.20;93.50;;;;;;5114404;28;19969;-68
2023/07/29 02:13:54;;;;;;;;;;;22.30;93.50;;;;;;5114015;28;19912;-67
2023/07/29 02:16:22;;;;;;;;;;;22.40;93.60;;;;;;5102727;28;20622;-68
2023/07/29 02:18:49;;;;;;;;;;;22.60;93.30;;;;;;5093713;28;19916;-68
2023/07/29 02:21:16;;;;;;;;;;;22.60;93.20;;;;;;5093897;28;20281;-67
2023/07/29 02:23:43;;;;;;;;;;;22.70;92.90;;;;;;5112804;28;19930;-68
2023/07/29 02:26:10;;;;;;;;;;;22.80;92.50;;;;;;5114274;28;19914;-68
2023/07/29 02:28:37;;;;;;;;;;;22.80;92.10;;;;;;5101595;28;19958;-66
2023/07/29 02:31:15;;;;;;;;;;;22.70;92.20;;;;;;5093745;28;19999;-66
2023/07/29 02:33:42;;;;;;;;;;;22.90;92.60;;;;;;5093750;28;19916;-67
2023/07/29 02:36:08;;;;;;;;;;;23.20;92.00;;;;;;5093715;28;19908;-68
2023/07/29 02:38:35;;;;;;;;;;;23.50;92.10;;;;;;5093375;28;19916;-68
2023/07/29 02:41:02;;;;;;;;;;;23.80;91.90;;;;;;5093495;28;19959;-66
2023/07/29 02:43:28;;;;;;;;;;;23.90;91.30;;;;;;5112178;28;19920;-68
2023/07/29 02:45:55;;;;;;;;;;;24.10;91.20;;;;;;5105886;28;19919;-68
2023/07/29 02:48:22;;;;;;;;;;;24.40;91.00;;;;;;5074851;28;19908;-67
2023/07/29 02:50:48;;;;;;;;;;;24.50;90.40;;;;;;5093210;28;19966;-66
2023/07/29 02:53:15;;;;;;;;;;;24.50;90.30;;;;;;5093339;28;19911;-68
2023/07/29 02:55:41;;;;;;;;;;;24.40;90.30;;;;;;5098698;28;19912;-67
2023/07/29 02:58:08;;;;;;;;;;;24.80;89.50;;;;;;5113087;28;19969;-68
2023/07/29 03:00:35;;;;;;;;;;;25.00;89.20;;;;;;5113433;28;20307;-67
2023/07/29 03:03:02;;;;;;;;;;;24.70;89.30;;;;;;5095113;28;19916;-66
2023/07/29 03:05:28;;;;;;;;;;;24.50;89.80;;;;;;5093073;28;19908;-67
2023/07/29 03:07:55;;;;;;;;;;;24.30;89.60;;;;;;5093243;28;19939;-67
2023/07/29 03:10:22;;;;;;;;;;;24.00;90.20;;;;;;5093037;28;19908;-67
2023/07/29 03:12:48;;;;;;;;;;;23.70;90.40;;;;;;5112861;28;19911;-67
2023/07/29 03:15:15;;;;;;;;;;;23.50;90.90;;;;;;5111078;28;19929;-68
2023/07/29 03:17:42;;;;;;;;;;;23.40;91.20;;;;;;5092703;28;19916;-66
2023/07/29 03:20:08;;;;;;;;;;;23.40;91.70;;;;;;5092881;28;19976;-66
2023/07/29 03:22:35;;;;;;;;;;;23.30;91.70;;;;;;5092721;28;19908;-67
2023/07/29 03:25:02;;;;;;;;;;;23.50;91.60;;;;;;5110369;28;19951;-68
2023/07/29 03:27:28;;;;;;;;;;;23.90;91.20;;;;;;5113409;28;19961;-66
2023/07/29 03:29:55;;;;;;;;;;;24.50;90.70;;;;;;5113500;28;20371;-67
2023/07/29 03:32:22;;;;;;;;;;;24.90;89.10;;;;;;5103079;28;19912;-67
2023/07/29 03:34:48;;;;;;;;;;;24.90;89.30;;;;;;5092620;28;19908;-67
2023/07/29 03:37:15;;;;;;;;;;;24.90;89.30;;;;;;5092714;28;20004;-67
2023/07/29 03:39:42;;;;;;;;;;;24.70;89.40;;;;;;5092653;28;20319;-69
2023/07/29 03:42:09;;;;;;;;;;;24.50;90.00;;;;;;5092791;28;19937;-67
2023/07/29 03:44:36;;;;;;;;;;;24.30;90.40;;;;;;5092531;28;19973;-66
2023/07/29 03:47:02;;;;;;;;;;;24.10;90.80;;;;;;5108611;28;19948;-68
2023/07/29 03:49:29;;;;;;;;;;;23.90;91.10;;;;;;5112973;28;19914;-68
2023/07/29 03:51:56;;;;;;;;;;;23.60;91.30;;;;;;5113080;28;19969;-66
2023/07/29 03:54:22;;;;;;;;;;;23.30;91.50;;;;;;5094704;28;19938;-67
2023/07/29 03:56:49;;;;;;;;;;;23.40;92.00;;;;;;5112880;28;19914;-67
2023/07/29 03:59:15;;;;;;;;;;;23.70;91.50;;;;;;5112927;28;19912;-66
2023/07/29 04:01:42;;;;;;;;;;;24.60;90.50;;;;;;5110615;28;19924;-66
2023/07/29 04:04:09;;;;;;;;;;;26.20;88.60;;;;;;5112498;28;19911;-66
2023/07/29 04:06:36;;;;;;;;;;;27.70;85.80;;;;;;5112856;28;19908;-68
2023/07/29 04:09:02;;;;;;;;;;;28.20;82.80;;;;;;5112525;28;20284;-68
2023/07/29 04:11:29;;;;;;;;;;;28.30;81.70;;;;;;5112551;28;19912;-68
2023/07/29 04:13:55;;;;;;;;;;;28.10;81.70;;;;;;5110412;28;19997;-67
2023/07/29 04:16:22;;;;;;;;;;;28.50;80.30;;;;;;5112120;28;19916;-66
2023/07/29 04:18:49;;;;;;;;;;;28.20;80.30;;;;;;5112302;28;20417;-67
2023/07/29 04:21:15;;;;;;;;;;;27.50;81.40;;;;;;5112483;28;19911;-67
2023/07/29 04:23:42;;;;;;;;;;;26.70;83.00;;;;;;5112576;28;19988;-66
2023/07/29 04:26:08;;;;;;;;;;;26.50;83.80;;;;;;5112847;28;19908;-66
2023/07/29 04:28:35;;;;;;;;;;;26.30;84.60;;;;;;5106706;28;19967;-67
2023/07/29 04:31:02;;;;;;;;;;;26.30;84.70;;;;;;5115648;28;19973;-67
2023/07/29 04:33:29;;;;;;;;;;;26.40;84.40;;;;;;5116390;28;19929;-68
2023/07/29 04:35:56;;;;;;;;;;;26.20;84.20;;;;;;5116591;28;19961;-66
2023/07/29 04:38:24;;;;;;;;;;;26.10;85.30;;;;;;5116465;28;19916;-68
2023/07/29 04:40:51;;;;;;;;;;;25.80;85.20;;;;;;5115573;28;19915;-66
2023/07/29 04:43:18;;;;;;;;;;;25.50;85.70;;;;;;5095205;28;19920;-66
2023/07/29 04:45:45;;;;;;;;;;;25.20;86.70;;;;;;5095733;28;19908;-67
2023/07/29 04:48:12;;;;;;;;;;;24.80;87.90;;;;;;5095413;28;19908;-66
2023/07/29 04:50:38;;;;;;;;;;;24.50;88.60;;;;;;5105990;28;19957;-67
2023/07/29 04:53:05;;;;;;;;;;;24.10;89.40;;;;;;5116208;28;19908;-67
2023/07/29 04:55:31;;;;;;;;;;;23.90;90.10;;;;;;5115989;28;19915;-67
2023/07/29 04:58:00;;;;;;;;;;;23.70;90.50;;;;;;5098268;28;19930;-65
2023/07/29 05:00:26;;;;;;;;;;;23.50;90.80;;;;;;5095722;28;19912;-67
2023/07/29 05:02:53;;;;;;;;;;;23.40;91.00;;;;;;5095634;28;19912;-67
2023/07/29 05:05:19;;;;;;;;;;;23.10;91.20;;;;;;5095400;28;19961;-66
2023/07/29 05:07:46;;;;;;;;;;;23.00;91.50;;;;;;5095093;28;19944;-66
2023/07/29 05:10:13;;;;;;;;;;;22.90;91.60;;;;;;5104031;28;19920;-64
2023/07/29 05:12:39;;;;;;;;;;;22.80;91.80;;;;;;5099818;28;19937;-67
2023/07/29 05:15:07;;;;;;;;;;;22.80;92.10;;;;;;5095293;28;19992;-68
2023/07/29 05:17:33;;;;;;;;;;;22.90;92.20;;;;;;5094808;28;19923;-67
2023/07/29 05:20:00;;;;;;;;;;;23.00;91.90;;;;;;5076883;28;20376;-67
2023/07/29 05:22:26;;;;;;;;;;;23.00;92.20;;;;;;5103161;28;19922;-67
2023/07/29 05:24:53;;;;;;;;;;;22.90;92.40;;;;;;5115211;28;19908;-68
2023/07/29 05:27:20;;;;;;;;;;;22.80;92.50;;;;;;5115060;28;20352;-67
2023/07/29 05:29:46;;;;;;;;;;;22.60;92.90;;;;;;5115132;28;19908;-68
2023/07/29 05:32:13;;;;;;;;;;;22.50;93.10;;;;;;5115189;28;20292;-66
2023/07/29 05:34:40;;;;;;;;;;;22.60;93.20;;;;;;5115140;28;19947;-67
2023/07/29 05:37:06;;;;;;;;;;;22.60;93.30;;;;;;5115315;28;19911;-67
2023/07/29 05:39:33;;;;;;;;;;;22.60;93.70;;;;;;5107906;28;19916;-67
2023/07/29 05:42:02;;;;;;;;;;;22.50;94.00;;;;;;5094266;28;19914;-65
2023/07/29 05:44:30;;;;;;;;;;;22.60;94.30;;;;;;5094417;28;19919;-67
2023/07/29 05:46:57;;;;;;;;;;;22.70;93.50;;;;;;5094605;28;19915;-68
2023/07/29 05:49:24;;;;;;;;;;;22.70;93.70;;;;;;5113789;28;20434;-65
2023/07/29 05:51:52;;;;;;;;;;;22.50;93.90;;;;;;5111741;28;19949;-70
2023/07/29 05:54:19;;;;;;;;;;;22.50;94.20;;;;;;5094105;28;19908;-67
2023/07/29 05:56:46;;;;;;;;;;;22.30;94.50;;;;;;5096062;28;19919;-67
2023/07/29 05:59:12;;;;;;;;;;;22.40;94.70;;;;;;5114483;28;20368;-66
2023/07/29 06:01:39;;;;;;;;;;;22.40;94.40;;;;;;5114618;28;20015;-68
2023/07/29 06:04:05;;;;;;;;;;;22.40;94.40;;;;;;5114774;28;20383;-66
2023/07/29 06:06:32;;;;;;;;;;;22.30;94.40;;;;;;5114397;28;19908;-66
2023/07/29 06:08:59;;;;;;;;;;;22.10;94.70;;;;;;5095313;28;19912;-68
2023/07/29 06:11:26;;;;;;;;;;;21.90;95.00;;;;;;5093877;28;19912;-67
2023/07/29 06:13:52;;;;;;;;;;;21.70;95.40;;;;;;5094236;28;20325;-66
2023/07/29 06:16:19;;;;;;;;;;;21.70;95.90;;;;;;5094066;28;19961;-67
2023/07/29 06:18:46;;;;;;;;;;;22.00;95.70;;;;;;5093900;28;19927;-67
2023/07/29 06:21:16;;;;;;;;;;;22.60;94.40;;;;;;5094106;28;19912;-67
2023/07/29 06:23:46;;;;;;;;;;;23.10;94.30;;;;;;5111591;28;19916;-68
2023/07/29 06:26:13;;;;;;;;;;;23.50;93.10;;;;;;5114371;28;19908;-68
2023/07/29 06:28:39;;;;;;;;;;;23.50;93.00;;;;;;5098776;28;20619;-66
2023/07/29 06:31:06;;;;;;;;;;;23.60;92.70;;;;;;5093843;28;20048;-69
2023/07/29 06:33:33;;;;;;;;;;;23.60;92.50;;;;;;5093772;28;19908;-67
2023/07/29 06:35:59;;;;;;;;;;;23.30;92.70;;;;;;5108805;28;20356;-68
2023/07/29 06:38:26;;;;;;;;;;;22.80;93.40;;;;;;5114157;28;19916;-67
2023/07/29 06:40:53;;;;;;;;;;;22.20;93.90;;;;;;5114056;28;20421;-67
2023/07/29 06:43:19;;;;;;;;;;;21.80;94.40;;;;;;5096510;28;19920;-66
2023/07/29 06:45:46;;;;;;;;;;;21.50;95.10;;;;;;5093734;28;19912;-66
2023/07/29 06:48:12;;;;;;;;;;;21.10;95.70;;;;;;5093482;28;19954;-66
2023/07/29 06:50:39;;;;;;;;;;;20.80;96.10;;;;;;5100983;28;20352;-66
2023/07/29 06:53:06;;;;;;;;;;;20.60;96.60;;;;;;5113798;28;19908;-67
2023/07/29 06:55:33;;;;;;;;;;;20.30;97.10;;;;;;5113496;28;20365;-67
2023/07/29 06:58:00;;;;;;;;;;;20.20;97.40;;;;;;5113525;28;19922;-67
2023/07/29 07:00:26;;;;;;;;;;;20.00;97.70;;;;;;5113551;28;19962;-68
2023/07/29 07:02:53;;;;;;;;;;;19.80;98.20;;;;;;5097646;28;20008;-67
2023/07/29 07:05:20;;;;;;;;;;;19.60;98.40;;;;;;5093126;28;19915;-68
2023/07/29 07:07:46;;;;;;;;;;;19.50;98.80;;;;;;5092795;28;20423;-66
2023/07/29 07:10:13;;;;;;;;;;;19.40;99.10;;;;;;5093197;28;19933;-65
2023/07/29 07:12:40;;;;;;;;;;;19.20;99.40;;;;;;5092921;28;20338;-68
2023/07/29 07:15:07;;;;;;;;;;;19.10;99.60;;;;;;5092881;28;19991;-67
2023/07/29 07:17:33;;;;;;;;;;;19.10;99.90;;;;;;5093928;28;20365;-66
2023/07/29 07:20:00;;;;;;;;;;;19.00;99.90;;;;;;5092191;28;19927;-67
2023/07/29 07:22:27;;;;;;;;;;;18.90;99.90;;;;;;5092720;28;19908;-67
2023/07/29 07:24:53;;;;;;;;;;;18.70;99.90;;;;;;5092735;28;19909;-67
2023/07/29 07:27:20;;;;;;;;;;;18.70;99.90;;;;;;5092972;28;19908;-67
2023/07/29 07:29:46;;;;;;;;;;;18.60;99.90;;;;;;5099826;28;19912;-67
2023/07/29 07:32:13;;;;;;;;;;;18.50;99.90;;;;;;5112745;28;19961;-66
2023/07/29 07:34:40;;;;;;;;;;;18.40;99.90;;;;;;5113050;28;19961;-67
2023/07/29 07:37:06;;;;;;;;;;;18.30;99.90;;;;;;5108279;28;19923;-67
2023/07/29 07:39:33;;;;;;;;;;;18.40;99.90;;;;;;5074049;28;19908;-66
2023/07/29 07:42:00;;;;;;;;;;;18.20;99.90;;;;;;5092692;28;19955;-66
2023/07/29 07:44:26;;;;;;;;;;;18.20;99.90;;;;;;5092567;28;19920;-65
2023/07/29 07:46:55;;;;;;;;;;;18.20;99.90;;;;;;5074743;28;19908;-67
2023/07/29 07:49:22;;;;;;;;;;;18.10;99.90;;;;;;5109977;28;19912;-66
2023/07/29 07:51:49;;;;;;;;;;;18.10;99.90;;;;;;5112918;28;20280;-67
2023/07/29 07:54:16;;;;;;;;;;;18.00;99.90;;;;;;5113298;28;20365;-65
2023/07/29 07:56:43;;;;;;;;;;;17.90;99.90;;;;;;5091353;28;20042;-67
2023/07/29 07:59:10;;;;;;;;;;;17.90;99.90;;;;;;5092398;28;19968;-67
2023/07/29 08:01:36;;;;;;;;;;;17.80;99.90;;;;;;5092404;28;20253;-67
2023/07/29 08:04:03;;;;;;;;;;;17.80;99.90;;;;;;5096622;28;20369;-67
2023/07/29 08:06:31;;;;;;;;;;;17.80;99.90;;;;;;5096688;28;20272;-67
2023/07/29 08:08:57;;;;;;;;;;;17.70;99.90;;;;;;5097328;28;20034;-67
2023/07/29 08:11:24;;;;;;;;;;;17.70;99.90;;;;;;5096035;28;19950;-66
2023/07/29 08:13:50;;;;;;;;;;;17.60;99.90;;;;;;5096403;28;19908;-67
2023/07/29 08:16:17;;;;;;;;;;;17.60;99.90;;;;;;5096452;28;19915;-66
2023/07/29 08:18:44;;;;;;;;;;;17.50;99.90;;;;;;5108414;28;19929;-67
2023/07/29 08:21:10;;;;;;;;;;;17.50;99.90;;;;;;5116799;28;20234;-68
2023/07/29 08:23:37;;;;;;;;;;;17.50;99.90;;;;;;5116651;28;19991;-67
2023/07/29 08:26:05;;;;;;;;;;;17.50;99.90;;;;;;5100328;28;19918;-67
2023/07/29 08:28:32;;;;;;;;;;;17.40;99.90;;;;;;5096103;28;19995;-66
2023/07/29 08:30:59;;;;;;;;;;;17.40;99.90;;;;;;5096145;28;19905;-67
2023/07/29 08:33:26;;;;;;;;;;;17.40;99.90;;;;;;5095817;28;20007;-67
2023/07/29 08:35:53;;;;;;;;;;;17.40;99.90;;;;;;5096379;28;20366;-67
2023/07/29 08:38:20;;;;;;;;;;;17.30;99.90;;;;;;5106124;28;19920;-66
2023/07/29 08:41:00;;;;;;;;;;;17.30;99.90;;;;;;5116188;28;20402;-66
2023/07/29 08:43:30;;;;;;;;;;;17.30;99.90;;;;;;5115994;28;19920;-67
2023/07/29 08:45:57;;;;;;;;;;;17.30;99.90;;;;;;5116016;28;19912;-66
2023/07/29 08:48:29;;;;;;;;;;;17.20;99.90;;;;;;5111248;28;19912;-66
2023/07/29 08:50:56;;;;;;;;;;;17.20;99.90;;;;;;5115442;28;19912;-66
2023/07/29 08:53:23;;;;;;;;;;;17.10;99.90;;;;;;5104392;28;20563;-68
2023/07/29 08:55:49;;;;;;;;;;;17.10;99.90;;;;;;5095557;28;19905;-66
2023/07/29 08:58:16;;;;;;;;;;;17.00;99.90;;;;;;5108035;28;19920;-65
2023/07/29 09:00:43;;;;;;;;;;;17.00;99.90;;;;;;5115730;28;19968;-66
2023/07/29 09:03:10;;;;;;;;;;;17.00;99.90;;;;;;5115516;28;19908;-66
2023/07/29 09:05:36;;;;;;;;;;;16.90;99.90;;;;;;5115676;28;19908;-66
2023/07/29 09:08:04;;;;;;;;;;;16.90;99.90;;;;;;5112382;28;19920;-66
2023/07/29 09:10:35;;;;;;;;;;;16.90;99.90;;;;;;5095204;28;19915;-66
2023/07/29 09:13:03;;;;;;;;;;;16.90;99.90;;;;;;5094486;28;20482;-68
2023/07/29 09:15:30;;;;;;;;;;;16.80;99.90;;;;;;5094758;28;19908;-67
2023/07/29 09:17:57;;;;;;;;;;;16.80;99.90;;;;;;5094771;28;19920;-68
2023/07/29 09:20:28;;;;;;;;;;;16.80;99.90;;;;;;5098794;28;19981;-68
2023/07/29 09:23:02;;;;;;;;;;;16.80;99.90;;;;;;5115345;28;19912;-67
2023/07/29 09:25:29;;;;;;;;;;;16.70;99.90;;;;;;5115362;28;19951;-67
2023/07/29 09:28:12;;;;;;;;;;;16.60;99.90;;;;;;5097093;28;19933;-67
2023/07/29 09:30:43;;;;;;;;;;;16.60;99.90;;;;;;5115493;28;20011;-65
2023/07/29 09:33:09;;;;;;;;;;;16.50;99.90;;;;;;5097101;28;19908;-66
2023/07/29 09:35:37;;;;;;;;;;;16.50;99.90;;;;;;5115135;28;19908;-66
2023/07/29 09:38:04;;;;;;;;;;;16.50;99.90;;;;;;5099382;28;19965;-66
2023/07/29 09:40:38;;;;;;;;;;;16.40;99.90;;;;;;5094766;28;20472;-67
2023/07/29 09:43:05;;;;;;;;;;;16.40;99.90;;;;;;5098376;28;19928;-67
2023/07/29 09:45:33;;;;;;;;;;;16.40;99.90;;;;;;5106244;28;19966;-66
2023/07/29 09:48:00;;;;;;;;;;;16.30;99.90;;;;;;5114779;28;20379;-67
2023/07/29 09:50:27;;;;;;;;;;;16.30;99.90;;;;;;5114962;28;19973;-68
2023/07/29 09:52:54;;;;;;;;;;;16.30;99.90;;;;;;5114884;28;19914;-67
2023/07/29 09:55:24;;;;;;;;;;;16.30;99.90;;;;;;5115124;28;19908;-67
2023/07/29 09:57:56;;;;;;;;;;;16.20;99.90;;;;;;5098723;28;19974;-65
2023/07/29 10:00:23;;;;;;;;;;;16.20;99.90;;;;;;5094248;28;19908;-66
2023/07/29 10:02:50;;;;;;;;;;;16.10;99.90;;;;;;5094363;28;19961;-66
2023/07/29 10:05:17;;;;;;;;;;;16.10;99.90;;;;;;5094364;28;19933;-67
2023/07/29 10:07:44;;;;;;;;;;;16.10;99.90;;;;;;5094209;28;19916;-65
2023/07/29 10:10:10;;;;;;;;;;;16.10;99.90;;;;;;5094201;28;20316;-66
2023/07/29 10:12:37;;;;;;;;;;;16.00;99.90;;;;;;5108192;28;19939;-64
2023/07/29 10:15:05;;;;;;;;;;;16.00;99.90;;;;;;5114661;28;19908;-68
2023/07/29 10:17:34;;;;;;;;;;;15.90;99.90;;;;;;5114311;28;20405;-67
2023/07/29 10:20:01;;;;;;;;;;;15.90;99.90;;;;;;5114332;28;19950;-67
2023/07/29 10:22:29;;;;;;;;;;;15.80;99.90;;;;;;5114319;28;19908;-67
2023/07/29 10:24:59;;;;;;;;;;;15.80;99.90;;;;;;5113535;28;19908;-67
2023/07/29 10:27:27;;;;;;;;;;;15.80;99.90;;;;;;5114324;28;19933;-65
2023/07/29 10:29:55;;;;;;;;;;;15.70;99.90;;;;;;5114104;28;20356;-66
2023/07/29 10:32:25;;;;;;;;;;;15.60;99.90;;;;;;5095629;28;20318;-67
2023/07/29 10:34:52;;;;;;;;;;;15.60;99.90;;;;;;5109621;28;19934;-68
2023/07/29 10:37:18;;;;;;;;;;;15.60;99.90;;;;;;5097063;28;19976;-66
2023/07/29 10:39:55;;;;;;;;;;;15.50;99.90;;;;;;5110837;28;19919;-67
2023/07/29 10:42:22;;;;;;;;;;;15.50;99.90;;;;;;5113932;28;19918;-67
2023/07/29 10:44:49;;;;;;;;;;;15.40;99.90;;;;;;5113701;28;20329;-67
2023/07/29 10:47:17;;;;;;;;;;;15.40;99.90;;;;;;5113905;28;19911;-67
2023/07/29 10:49:45;;;;;;;;;;;15.30;99.90;;;;;;5113613;28;19915;-67
2023/07/29 10:52:16;;;;;;;;;;;15.40;99.90;;;;;;5113844;28;19957;-67
2023/07/29 10:54:46;;;;;;;;;;;15.30;99.90;;;;;;5095407;28;19908;-66
2023/07/29 10:57:16;;;;;;;;;;;15.30;99.90;;;;;;5113653;28;19915;-68
2023/07/29 11:00:03;;;;;;;;;;;15.30;99.90;;;;;;5113783;28;19908;-66
2023/07/29 11:02:31;;;;;;;;;;;15.20;99.90;;;;;;5113348;28;19968;-68
2023/07/29 11:04:58;;;;;;;;;;;15.20;99.90;;;;;;5102873;28;19908;-66
2023/07/29 11:07:29;;;;;;;;;;;15.10;99.90;;;;;;5093245;28;19923;-67
2023/07/29 11:09:57;;;;;;;;;;;15.10;99.90;;;;;;5110898;28;19907;-66
2023/07/29 11:12:37;;;;;;;;;;;15.00;99.90;;;;;;5113239;28;19918;-66
2023/07/29 11:15:05;;;;;;;;;;;15.00;99.90;;;;;;5113149;28;19908;-66
2023/07/29 11:17:34;;;;;;;;;;;15.00;99.90;;;;;;5113245;28;19912;-67
2023/07/29 11:20:04;;;;;;;;;;;15.00;99.90;;;;;;5113485;28;19945;-66
2023/07/29 11:22:30;;;;;;;;;;;14.90;99.90;;;;;;5113590;28;19908;-67
2023/07/29 11:24:57;;;;;;;;;;;14.90;99.90;;;;;;5111298;28;19915;-68
2023/07/29 11:27:24;;;;;;;;;;;15.00;99.90;;;;;;5113396;28;20421;-67
2023/07/29 11:29:50;;;;;;;;;;;14.90;99.90;;;;;;5113279;28;19904;-68
2023/07/29 11:32:17;;;;;;;;;;;14.80;99.90;;;;;;5106701;28;19965;-67
2023/07/29 11:34:44;;;;;;;;;;;14.80;99.90;;;;;;5092586;28;19919;-67
2023/07/29 11:37:11;;;;;;;;;;;14.80;99.90;;;;;;5092642;28;19919;-68
2023/07/29 11:39:41;;;;;;;;;;;14.80;99.90;;;;;;5107568;28;19916;-68
2023/07/29 11:42:11;;;;;;;;;;;14.70;99.90;;;;;;5112917;28;19912;-67
2023/07/29 11:44:38;;;;;;;;;;;14.70;99.90;;;;;;5100701;28;19973;-67
2023/07/29 11:47:09;;;;;;;;;;;14.60;99.90;;;;;;5092433;28;19977;-67
2023/07/29 11:49:36;;;;;;;;;;;14.60;99.90;;;;;;5092481;28;20377;-68
2023/07/29 11:52:03;;;;;;;;;;;14.60;99.90;;;;;;5092477;28;19908;-68
2023/07/29 11:54:30;;;;;;;;;;;14.60;99.90;;;;;;5092428;28;19915;-66
2023/07/29 11:56:57;;;;;;;;;;;14.60;99.90;;;;;;5092694;28;19908;-67
2023/07/29 11:59:24;;;;;;;;;;;14.50;99.90;;;;;;5092530;28;20494;-67
2023/07/29 12:01:50;;;;;;;;;;;14.50;99.90;;;;;;5112455;28;19995;-67
2023/07/29 12:04:17;;;;;;;;;;;14.50;99.90;;;;;;5112574;28;19915;-67
2023/07/29 12:06:44;;;;;;;;;;;14.50;99.90;;;;;;5112390;28;20013;-68
2023/07/29 12:09:11;;;;;;;;;;;14.50;99.90;;;;;;5101411;28;19908;-67
2023/07/29 12:11:37;;;;;;;;;;;14.50;99.90;;;;;;5092124;28;19919;-67
2023/07/29 12:14:07;;;;;;;;;;;14.40;99.90;;;;;;5093533;28;19997;-66
2023/07/29 12:16:40;;;;;;;;;;;14.40;99.90;;;;;;5109546;28;19957;-66
2023/07/29 12:19:07;;;;;;;;;;;14.40;99.90;;;;;;5112292;28;19927;-67
2023/07/29 12:21:34;;;;;;;;;;;14.30;99.90;;;;;;5112784;28;19908;-66
2023/07/29 12:24:00;;;;;;;;;;;14.30;99.90;;;;;;5101472;28;20368;-67
2023/07/29 12:26:30;;;;;;;;;;;14.30;99.90;;;;;;5092411;28;19919;-67
2023/07/29 12:28:57;;;;;;;;;;;14.20;99.90;;;;;;5106028;28;19939;-64
2023/07/29 12:31:31;;;;;;;;;;;14.20;99.90;;;;;;5112618;28;19950;-67
2023/07/29 12:33:58;;;;;;;;;;;14.20;99.90;;;;;;5112496;28;20309;-67
2023/07/29 12:36:40;;;;;;;;;;;14.20;99.90;;;;;;5112587;28;19911;-66
2023/07/29 12:39:15;;;;;;;;;;;14.20;99.90;;;;;;5102011;28;19920;-68
2023/07/29 12:41:42;;;;;;;;;;;14.20;99.90;;;;;;5092102;28;19912;-67
2023/07/29 12:44:08;;;;;;;;;;;14.10;99.90;;;;;;5092049;28;20412;-66
2023/07/29 12:46:35;;;;;;;;;;;14.10;99.90;;;;;;5092211;28;19909;-67
2023/07/29 12:49:02;;;;;;;;;;;14.00;99.90;;;;;;5094664;28;19908;-67
2023/07/29 12:51:28;;;;;;;;;;;14.00;99.90;;;;;;5095653;28;19967;-68
2023/07/29 12:53:55;;;;;;;;;;;14.00;99.90;;;;;;5099827;28;20089;-67
2023/07/29 12:56:21;;;;;;;;;;;13.90;99.90;;;;;;5095807;28;19908;-67
2023/07/29 12:58:48;;;;;;;;;;;14.00;99.90;;;;;;5095647;28;19996;-67
2023/07/29 13:01:18;;;;;;;;;;;13.90;99.90;;;;;;5095299;28;19914;-67
2023/07/29 13:03:45;;;;;;;;;;;13.90;99.90;;;;;;5107928;28;19915;-68
2023/07/29 13:06:12;;;;;;;;;;;13.90;99.90;;;;;;5115714;28;19943;-68
2023/07/29 13:08:38;;;;;;;;;;;13.90;99.90;;;;;;5115776;28;19908;-68
2023/07/29 13:11:05;;;;;;;;;;;13.80;99.90;;;;;;5115894;28;19908;-68
2023/07/29 13:13:32;;;;;;;;;;;13.90;99.90;;;;;;5115628;28;19908;-67
2023/07/29 13:15:58;;;;;;;;;;;13.90;99.90;;;;;;5115421;28;20423;-67
2023/07/29 13:18:25;;;;;;;;;;;13.90;99.90;;;;;;5113919;28;19915;-67
2023/07/29 13:20:51;;;;;;;;;;;13.90;99.90;;;;;;5115708;28;19908;-67
2023/07/29 13:23:18;;;;;;;;;;;13.80;99.90;;;;;;5103550;28;19962;-65
2023/07/29 13:25:45;;;;;;;;;;;13.80;99.90;;;;;;5095110;28;20345;-66
2023/07/29 13:28:13;;;;;;;;;;;13.80;99.90;;;;;;5094898;28;19930;-66
2023/07/29 13:30:40;;;;;;;;;;;13.70;99.90;;;;;;5094850;28;19916;-67
2023/07/29 13:33:09;;;;;;;;;;;13.80;99.90;;;;;;5095042;28;19988;-67
2023/07/29 13:35:36;;;;;;;;;;;13.60;99.90;;;;;;5094953;28;19919;-66
2023/07/29 13:38:02;;;;;;;;;;;13.70;99.90;;;;;;5095349;28;20276;-66
2023/07/29 13:40:29;;;;;;;;;;;13.70;99.90;;;;;;5094885;28;19952;-67
2023/07/29 13:42:56;;;;;;;;;;;13.60;99.90;;;;;;5086186;28;19920;-67
2023/07/29 13:45:22;;;;;;;;;;;13.70;99.90;;;;;;5114998;28;19912;-66
2023/07/29 13:47:50;;;;;;;;;;;13.60;99.90;;;;;;5101848;28;21071;-66
2023/07/29 13:50:17;;;;;;;;;;;13.60;99.90;;;;;;5094599;28;19912;-65
2023/07/29 13:52:44;;;;;;;;;;;13.60;99.90;;;;;;5094467;28;19997;-67
2023/07/29 13:55:11;;;;;;;;;;;13.50;99.90;;;;;;5094489;28;19912;-68
2023/07/29 13:57:41;;;;;;;;;;;13.50;99.90;;;;;;5094669;28;19912;-66
2023/07/29 14:00:08;;;;;;;;;;;13.40;99.90;;;;;;5093109;28;19912;-65
2023/07/29 14:02:34;;;;;;;;;;;13.40;99.90;;;;;;5103256;28;19919;-67
2023/07/29 14:05:01;;;;;;;;;;;13.50;99.90;;;;;;5114579;28;19919;-66
2023/07/29 14:07:28;;;;;;;;;;;13.40;99.90;;;;;;5114597;28;19928;-67
2023/07/29 14:09:54;;;;;;;;;;;13.30;99.90;;;;;;5114512;28;20002;-66
2023/07/29 14:12:21;;;;;;;;;;;13.40;99.90;;;;;;5114537;28;20002;-67
2023/07/29 14:14:47;;;;;;;;;;;13.30;99.90;;;;;;5112909;28;20325;-67
2023/07/29 14:17:14;;;;;;;;;;;13.30;99.90;;;;;;5113710;28;20006;-67